Little Rock AFB, AR

9:53 PM CDT on March 26, 2017 (GMT -0500)
Little Rock Air Force Base | | Change Station

Elev 308 ft 34.92 °N, 92.15 °W | Updated 55 minutes ago

Clear
Clear
66 °F
Feels Like 66 °F
N
6
Wind Variable Wind from East

Today
High -- | Low -- °F
--% Chance of Precip.
Yesterday
High -- | Low -- °F
Precip. -- in
Pressure 29.88 in
Visibility 10.0 miles
Clouds Clear
Dew Point 56 °F
Humidity 69%
Rainfall 0.00 in
Snow Depth Not available.
7:03 AM 7:25 PM
Waning Crescent, 1% visible
METAR KLRF 270158Z AUTO 09005KT 10SM CLR 19/13 A2987 RMK AO2 SLP117 T01890132
Pressure 29.88 in
Visibility 10.0 miles
Clouds Clear
Dew Point 56 °F
Humidity 69%
Rainfall 0.00 in
Snow Depth Not available.
7:03 AM 7:25 PM
Waning Crescent, 1% visible
METAR KLRF 270158Z AUTO 09005KT 10SM CLR 19/13 A2987 RMK AO2 SLP117 T01890132

Get Severe Weather Alerts

Thanks for signing up!

Be on the lookout for a verification email in your inbox.

You'll start receiving the daily forecast at 8 AM.

×

10-Day Weather Forecast

Almanac

Astronomy

Mar. 26, 2017 Rise Set
Actual Time
Civil Twilight
Nautical Twilight
Astronomical Twilight
Moon
Length of Visible Light
Length of Day
Tomorrow will be .
, % of the Moon is Illuminated

Today's Extremes

State Highs State Lows

Community

WunderPhotos

Upload Photos

1,962,540 photos uploaded!

WunderBlog® & News

Nearby

Air Quality

  Air Quality AQ Index Pollutant
Not available.

Snow Depth

Station Depth Elevation

Earthquake Activity

City Distance Mag. Time & Date
Minimum magnitude displayed is 2.5.

Earthquake Activity

City Distance Mag. Time & Date
Minimum magnitude displayed is 2.5.

Coastal Water Temperatures

Place Temperature

Stations

Nearby Weather Stations

Station Location Temp. Windchill Dew Point Humidity Wind Precip. Elev Updated Type
                   

Watches & Warnings

There are currently no watches in effect.